createdAt,value
2023-04-26T04:00:50.611Z,-0.60
2023-04-26T04:04:53.570Z,-0.54
2023-04-26T04:08:56.446Z,-0.48
2023-04-26T04:12:59.757Z,-0.44
2023-04-26T04:17:04.034Z,-0.33
2023-04-26T04:21:07.172Z,-0.15
2023-04-26T04:25:11.710Z,-0.20
2023-04-26T04:29:15.838Z,-0.26
2023-04-26T04:33:20.726Z,-0.24
2023-04-26T04:37:23.620Z,-0.19
2023-04-26T04:41:26.424Z,-0.14
2023-04-26T04:45:29.046Z,-0.07
2023-04-26T04:49:34.803Z,0.02
2023-04-26T04:53:38.096Z,0.03
2023-04-26T04:57:43.114Z,0.14
2023-04-26T05:01:46.294Z,0.11
2023-04-26T05:05:51.859Z,0.13
2023-04-26T05:09:55.668Z,0.17
2023-04-26T05:13:58.624Z,0.29
2023-04-26T05:18:02.014Z,0.56
2023-04-26T05:22:06.191Z,0.76
2023-04-26T05:26:09.000Z,1.03
2023-04-26T05:30:28.301Z,1.24
2023-04-26T05:34:49.425Z,1.38
2023-04-26T05:38:54.182Z,1.54
2023-04-26T05:42:56.755Z,1.62
2023-04-26T05:46:59.492Z,1.78
2023-04-26T05:51:03.494Z,2.05
2023-04-26T05:55:09.459Z,2.21
2023-04-26T05:59:13.597Z,2.44
2023-04-26T06:03:16.732Z,2.72
2023-04-26T06:07:19.661Z,2.90
2023-04-26T06:11:24.576Z,3.08
2023-04-26T06:15:27.815Z,3.22
2023-04-26T06:19:31.050Z,3.41
2023-04-26T06:23:33.560Z,3.67
2023-04-26T06:27:39.044Z,3.90
2023-04-26T06:31:42.008Z,4.55
2023-04-26T06:35:44.881Z,5.03
2023-04-26T06:39:48.277Z,5.44
2023-04-26T06:43:53.069Z,5.84
2023-04-26T06:47:57.381Z,6.04
2023-04-26T06:52:01.170Z,6.35
2023-04-26T06:56:04.588Z,6.92
2023-04-26T07:00:10.672Z,7.57
2023-04-26T07:04:14.815Z,7.62
2023-04-26T07:08:17.539Z,7.36
2023-04-26T07:12:20.044Z,7.25
2023-04-26T07:16:23.974Z,7.15
2023-04-26T07:20:26.793Z,7.59
2023-04-26T07:24:29.376Z,7.74
2023-04-26T07:28:32.294Z,7.33
2023-04-26T07:32:36.304Z,6.96
2023-04-26T07:36:39.207Z,7.32
2023-04-26T07:40:43.151Z,7.54
2023-04-26T07:44:45.751Z,8.11
2023-04-26T07:48:49.608Z,8.55
2023-04-26T07:52:52.117Z,8.59
2023-04-26T07:56:55.429Z,8.40
2023-04-26T08:00:57.965Z,8.67
2023-04-26T08:05:02.138Z,8.94
2023-04-26T08:09:05.502Z,9.52
2023-04-26T08:13:08.176Z,9.15
2023-04-26T08:17:10.958Z,9.08
2023-04-26T08:21:14.882Z,8.45
2023-04-26T08:25:17.632Z,8.29
2023-04-26T08:29:20.700Z,8.52
2023-04-26T08:33:23.246Z,8.39
2023-04-26T08:37:29.230Z,8.67
2023-04-26T08:41:37.384Z,8.40
2023-04-26T08:45:45.064Z,8.61
2023-04-26T08:49:50.296Z,8.55
2023-04-26T08:53:54.591Z,8.22
2023-04-26T08:57:57.688Z,8.77
2023-04-26T09:02:02.991Z,8.06
2023-04-26T09:06:07.868Z,7.79
2023-04-26T09:10:13.865Z,8.11
2023-04-26T09:14:16.472Z,7.86
2023-04-26T09:18:20.776Z,7.80
2023-04-26T09:22:33.691Z,8.28
2023-04-26T09:26:37.723Z,8.76
2023-04-26T09:30:40.793Z,9.21
2023-04-26T09:34:47.602Z,9.43
2023-04-26T09:38:50.718Z,9.65
2023-04-26T09:43:05.824Z,9.10
2023-04-26T09:47:10.181Z,9.57
2023-04-26T09:51:12.970Z,9.06
2023-04-26T09:55:34.728Z,9.42
2023-04-26T09:59:44.347Z,8.96
2023-04-26T10:03:47.880Z,9.76
2023-04-26T10:07:51.787Z,9.99
2023-04-26T10:11:54.480Z,10.09
2023-04-26T10:15:58.418Z,9.98
2023-04-26T10:20:05.787Z,10.67
2023-04-26T10:24:09.219Z,10.54
2023-04-26T10:28:11.655Z,11.03
2023-04-26T10:32:18.431Z,10.34
2023-04-26T10:36:21.249Z,9.94
2023-04-26T10:40:25.127Z,10.44
2023-04-26T10:44:41.813Z,10.86
2023-04-26T10:48:45.697Z,10.57
2023-04-26T10:53:06.764Z,11.07
2023-04-26T10:57:09.356Z,10.69
2023-04-26T11:01:17.774Z,9.88
2023-04-26T11:05:38.968Z,9.69
2023-04-26T11:09:49.019Z,9.85
2023-04-26T11:13:51.582Z,9.97
2023-04-26T11:17:54.157Z,9.85
2023-04-26T11:21:58.170Z,10.12
2023-04-26T11:26:02.878Z,10.07
2023-04-26T11:30:06.522Z,9.92
2023-04-26T11:34:09.083Z,9.94
2023-04-26T11:38:13.064Z,9.87
2023-04-26T11:42:15.598Z,10.36
2023-04-26T11:46:21.885Z,10.19
2023-04-26T11:50:26.704Z,10.69
2023-04-26T11:54:31.680Z,11.59
2023-04-26T11:58:34.252Z,12.12
2023-04-26T12:02:36.885Z,12.34
2023-04-26T12:06:43.685Z,11.43
2023-04-26T12:10:47.853Z,10.08
2023-04-26T12:14:50.357Z,10.44
2023-04-26T12:18:53.857Z,9.72
2023-04-26T12:23:04.041Z,9.53
2023-04-26T12:27:08.224Z,9.49
2023-04-26T12:31:11.301Z,10.10
2023-04-26T12:35:13.956Z,10.59
2023-04-26T12:39:16.807Z,10.50
2023-04-26T12:43:23.960Z,11.46
2023-04-26T12:47:26.568Z,11.44
2023-04-26T12:51:29.365Z,11.14
2023-04-26T12:55:33.026Z,10.86
2023-04-26T12:59:37.411Z,9.82
2023-04-26T13:03:40.627Z,9.79
2023-04-26T13:07:44.573Z,10.79
2023-04-26T13:11:47.165Z,10.79
2023-04-26T13:15:51.162Z,11.34
2023-04-26T13:19:53.941Z,11.50
2023-04-26T13:23:56.478Z,11.48
2023-04-26T13:27:59.022Z,11.43
2023-04-26T13:32:03.749Z,11.12
2023-04-26T13:36:07.248Z,9.87
2023-04-26T13:40:11.191Z,9.40
2023-04-26T13:44:14.210Z,9.10
2023-04-26T13:48:18.331Z,9.31
2023-04-26T13:52:21.657Z,9.21
2023-04-26T13:56:26.169Z,9.23
2023-04-26T14:00:28.888Z,9.67
2023-04-26T14:04:33.034Z,9.85
2023-04-26T14:08:35.809Z,10.63
2023-04-26T14:12:38.418Z,10.72
2023-04-26T14:16:41.118Z,10.89
2023-04-26T14:20:45.101Z,10.69
2023-04-26T14:24:47.753Z,10.79
2023-04-26T14:28:50.692Z,11.21
2023-04-26T14:32:53.243Z,10.80
2023-04-26T14:37:01.231Z,10.43
2023-04-26T14:41:03.802Z,11.38
2023-04-26T14:45:07.610Z,11.31
2023-04-26T14:49:10.322Z,11.11
2023-04-26T14:53:14.197Z,11.02
2023-04-26T14:57:16.708Z,10.99
2023-04-26T15:01:19.382Z,10.88
2023-04-26T15:05:24.116Z,10.50
2023-04-26T15:09:30.269Z,10.36
2023-04-26T15:13:33.176Z,10.74
2023-04-26T15:17:35.865Z,10.64
2023-04-26T15:21:38.450Z,9.97
2023-04-26T15:25:42.323Z,9.76
2023-04-26T15:29:44.870Z,9.81
2023-04-26T15:33:48.209Z,10.10
2023-04-26T15:37:53.671Z,10.48
2023-04-26T15:41:57.796Z,10.31
2023-04-26T15:46:00.378Z,9.68
2023-04-26T15:50:04.635Z,9.95
2023-04-26T15:54:07.747Z,10.48
2023-04-26T15:58:11.815Z,10.44
2023-04-26T16:02:14.431Z,10.32
2023-04-26T16:06:17.359Z,10.50
2023-04-26T16:10:19.946Z,10.24
2023-04-26T16:14:23.760Z,10.02
2023-04-26T16:18:26.507Z,9.55
2023-04-26T16:22:29.179Z,9.41
2023-04-26T16:26:31.767Z,9.23
2023-04-26T16:30:35.584Z,9.43
2023-04-26T16:34:38.049Z,9.48
2023-04-26T16:38:40.808Z,10.26
2023-04-26T16:42:44.418Z,10.60
2023-04-26T16:46:48.300Z,11.06
2023-04-26T16:50:51.347Z,11.93
2023-04-26T16:54:53.880Z,12.14
2023-04-26T16:58:56.383Z,13.06
2023-04-26T17:03:00.320Z,13.82
2023-04-26T17:07:03.022Z,13.31
2023-04-26T17:11:05.877Z,12.95
2023-04-26T17:15:09.597Z,13.12
2023-04-26T17:19:13.516Z,12.87
2023-04-26T17:23:16.385Z,12.12
2023-04-26T17:27:18.916Z,12.59
2023-04-26T17:31:21.915Z,13.18
2023-04-26T17:35:26.101Z,13.34
2023-04-26T17:39:28.625Z,13.03
2023-04-26T17:43:31.248Z,12.51
2023-04-26T17:47:33.892Z,12.25
2023-04-26T17:51:37.793Z,12.26
2023-04-26T17:55:40.746Z,11.82
2023-04-26T17:59:43.256Z,11.43
2023-04-26T18:03:45.988Z,10.64
2023-04-26T18:07:49.991Z,10.07
2023-04-26T18:11:52.490Z,9.72
2023-04-26T18:15:55.804Z,9.44
2023-04-26T18:19:58.369Z,9.32
2023-04-26T18:24:02.248Z,9.07
2023-04-26T18:28:05.487Z,8.99
2023-04-26T18:32:08.023Z,8.99
2023-04-26T18:36:10.694Z,8.43
2023-04-26T18:40:14.786Z,8.37
2023-04-26T18:44:17.329Z,7.98
2023-04-26T18:48:19.869Z,8.10
2023-04-26T18:52:22.376Z,8.11
2023-04-26T18:56:26.274Z,7.79
2023-04-26T19:00:28.776Z,7.47
2023-04-26T19:04:31.482Z,7.24
2023-04-26T19:08:34.110Z,7.25
2023-04-26T19:12:38.066Z,7.21
2023-04-26T19:16:40.601Z,7.19
2023-04-26T19:20:43.083Z,7.14
2023-04-26T19:24:49.529Z,7.13
2023-04-26T19:28:55.479Z,7.01
2023-04-26T19:32:58.120Z,6.94
2023-04-26T19:37:00.692Z,6.78
2023-04-26T19:41:03.395Z,6.66
2023-04-26T19:45:08.573Z,6.67
2023-04-26T19:49:11.114Z,6.71
2023-04-26T19:53:15.070Z,6.78
2023-04-26T19:57:17.662Z,6.77
2023-04-26T20:01:21.650Z,6.68
2023-04-26T20:05:24.329Z,6.43
2023-04-26T20:09:26.830Z,6.23
2023-04-26T20:13:29.370Z,6.20
2023-04-26T20:17:33.254Z,6.24
2023-04-26T20:21:35.923Z,6.20
2023-04-26T20:25:38.395Z,6.27
2023-04-26T20:29:41.152Z,6.09
2023-04-26T20:33:45.033Z,5.75
2023-04-26T20:37:47.594Z,5.66
2023-04-26T20:41:50.129Z,5.57
2023-04-26T20:45:52.662Z,5.59
2023-04-26T20:49:56.548Z,5.35
2023-04-26T20:53:59.110Z,5.17
2023-04-26T20:58:01.631Z,5.03
